Time;durP1;ratioP1;P1;durP2;ratioP2;P2;SDS_P1;SDS_P2;PMS_P1;PMS_P2;Temp;Humidity;BMP_temperature;BMP_pressure;BME280_temperature;BME280_humidity;BME280_pressure;Samples;Min_cycle;Max_cycle;Signal;HPM_P1;HPM_P2
2023/04/21 00:01:28;;;;;;;3.42;2.13;;;18.20;34.90;;;;;;6260039;22;20143;-82
2023/04/21 00:03:54;;;;;;;2.45;2.00;;;18.20;34.80;;;;;;6285786;22;20134;-83
2023/04/21 00:06:21;;;;;;;2.85;1.92;;;18.20;34.90;;;;;;6234873;22;20147;-83
2023/04/21 00:08:48;;;;;;;4.03;2.22;;;18.20;34.90;;;;;;6260740;22;20167;-83
2023/04/21 00:11:14;;;;;;;4.70;2.17;;;18.10;34.80;;;;;;6261238;22;20185;-82
2023/04/21 00:13:40;;;;;;;4.15;2.20;;;18.10;34.90;;;;;;6287005;22;20154;-83
2023/04/21 00:16:06;;;;;;;3.80;2.30;;;18.10;34.90;;;;;;6285816;22;20159;-83
2023/04/21 00:18:32;;;;;;;2.97;1.90;;;18.10;35.00;;;;;;6261044;22;20147;-83
2023/04/21 00:20:58;;;;;;;1.80;1.70;;;18.10;35.00;;;;;;6261127;22;20558;-83
2023/04/21 00:23:24;;;;;;;3.33;2.20;;;18.10;35.00;;;;;;6181790;23;20569;-83
2023/04/21 00:25:51;;;;;;;4.22;2.10;;;18.10;35.00;;;;;;6286136;22;20269;-83
2023/04/21 00:28:17;;;;;;;2.63;1.98;;;18.10;35.00;;;;;;6260359;22;20161;-83
2023/04/21 00:30:42;;;;;;;1.92;1.73;;;18.10;35.00;;;;;;6260692;22;20186;-83
2023/04/21 00:33:08;;;;;;;3.90;2.13;;;18.10;35.00;;;;;;6285851;22;20139;-83
2023/04/21 00:35:34;;;;;;;3.92;2.13;;;18.10;35.00;;;;;;6259766;22;20223;-82
2023/04/21 00:37:59;;;;;;;2.90;2.00;;;18.00;35.00;;;;;;6286189;22;20563;-83
2023/04/21 00:40:26;;;;;;;3.42;2.10;;;18.10;35.00;;;;;;6260045;22;20166;-82
2023/04/21 00:42:51;;;;;;;2.40;2.05;;;18.10;35.00;;;;;;6259382;22;20158;-83
2023/04/21 00:45:17;;;;;;;2.47;2.03;;;18.10;35.00;;;;;;6234802;22;20146;-82
2023/04/21 00:47:43;;;;;;;2.65;1.92;;;18.10;35.00;;;;;;6285875;22;20146;-83
2023/04/21 00:50:10;;;;;;;4.35;2.50;;;18.10;35.10;;;;;;6181801;23;20210;-83
2023/04/21 00:52:35;;;;;;;3.65;2.20;;;18.00;35.00;;;;;;6286160;22;20151;-82
2023/04/21 00:55:01;;;;;;;2.83;2.15;;;18.10;35.10;;;;;;6260175;22;20174;-83
2023/04/21 00:57:28;;;;;;;3.35;2.28;;;18.00;35.00;;;;;;6285328;22;20132;-83
2023/04/21 00:59:54;;;;;;;2.25;1.80;;;18.00;35.10;;;;;;6260638;22;20200;-83
2023/04/21 01:02:20;;;;;;;2.28;2.08;;;18.10;35.10;;;;;;6285778;22;20131;-84
2023/04/21 01:04:46;;;;;;;3.47;2.08;;;18.10;35.20;;;;;;6259904;22;20135;-83
2023/04/21 01:07:13;;;;;;;5.60;2.28;;;18.00;35.10;;;;;;6285599;22;20139;-83
2023/04/21 01:09:38;;;;;;;4.75;2.50;;;18.00;35.10;;;;;;6260227;22;20170;-83
2023/04/21 01:12:07;;;;;;;4.38;2.40;;;18.00;35.20;;;;;;6285137;22;20141;-83
2023/04/21 01:14:34;;;;;;;4.13;2.20;;;18.00;35.20;;;;;;6235073;22;20179;-83
2023/04/21 01:16:59;;;;;;;2.75;2.15;;;18.00;35.20;;;;;;6181730;22;20155;-82
2023/04/21 01:19:27;;;;;;;2.85;2.10;;;18.00;35.20;;;;;;6181691;23;20131;-83
2023/04/21 01:21:56;;;;;;;3.50;2.28;;;18.00;35.30;;;;;;6285643;22;20214;-83
2023/04/21 01:24:23;;;;;;;3.63;2.35;;;18.00;35.30;;;;;;6282850;22;20138;-82
2023/04/21 01:26:49;;;;;;;2.90;1.88;;;18.00;35.30;;;;;;6259371;22;20653;-83
2023/04/21 01:29:15;;;;;;;3.22;2.00;;;17.90;35.20;;;;;;6181529;23;20143;-82
2023/04/21 01:31:41;;;;;;;3.75;2.22;;;18.00;35.30;;;;;;6259502;22;20131;-83
2023/04/21 01:34:07;;;;;;;3.10;1.90;;;18.00;35.30;;;;;;6259636;22;20135;-83
2023/04/21 01:36:34;;;;;;;3.10;2.25;;;18.00;35.30;;;;;;6285069;22;20617;-83
2023/04/21 01:39:00;;;;;;;3.10;2.20;;;18.00;35.30;;;;;;6259812;22;20668;-83
2023/04/21 01:41:26;;;;;;;4.20;2.40;;;18.00;35.40;;;;;;6285435;22;20159;-83
2023/04/21 01:43:52;;;;;;;4.28;2.30;;;18.00;35.40;;;;;;6260632;22;20170;-83
2023/04/21 01:46:19;;;;;;;4.70;2.35;;;18.00;35.40;;;;;;6259733;22;20574;-83
2023/04/21 01:48:45;;;;;;;2.60;2.05;;;18.00;35.50;;;;;;6234396;22;20567;-82
2023/04/21 01:51:11;;;;;;;2.97;2.10;;;17.90;35.40;;;;;;6259406;22;20200;-82
2023/04/21 01:53:37;;;;;;;4.05;2.22;;;18.00;35.50;;;;;;6285140;22;20157;-83
2023/04/21 01:56:03;;;;;;;3.97;2.10;;;17.90;35.50;;;;;;6284942;22;20170;-82
2023/04/21 01:58:28;;;;;;;2.28;2.08;;;17.90;35.50;;;;;;6285188;22;20218;-83
2023/04/21 02:00:54;;;;;;;3.72;2.22;;;17.90;35.50;;;;;;6181354;23;20133;-82
2023/04/21 02:03:19;;;;;;;5.88;2.20;;;17.90;35.50;;;;;;6259343;22;20172;-83
2023/04/21 02:05:45;;;;;;;4.50;2.08;;;17.90;35.50;;;;;;6284969;22;20488;-82
2023/04/21 02:08:11;;;;;;;3.40;2.28;;;17.90;35.50;;;;;;6259319;22;20222;-82
2023/04/21 02:10:37;;;;;;;3.60;2.20;;;17.90;35.50;;;;;;6181173;23;20135;-82
2023/04/21 02:13:02;;;;;;;2.05;1.90;;;17.90;35.50;;;;;;6285003;22;20151;-83
2023/04/21 02:15:28;;;;;;;2.90;1.98;;;17.90;35.60;;;;;;6284764;22;20241;-83
2023/04/21 02:17:54;;;;;;;5.93;2.20;;;17.90;36.20;;;;;;6181199;23;20566;-83
2023/04/21 02:20:20;;;;;;;2.95;2.22;;;17.90;35.60;;;;;;6284806;22;20598;-82
2023/04/21 02:22:46;;;;;;;5.07;2.20;;;17.90;35.70;;;;;;6285705;22;20146;-82
2023/04/21 02:25:11;;;;;;;3.28;2.20;;;17.90;35.60;;;;;;6181598;23;20229;-83
2023/04/21 02:27:37;;;;;;;3.28;2.20;;;17.90;35.80;;;;;;6181026;22;20585;-82
2023/04/21 02:30:03;;;;;;;3.38;2.00;;;17.90;35.80;;;;;;6284663;22;20558;-82
2023/04/21 02:32:29;;;;;;;4.05;2.38;;;17.80;35.60;;;;;;6259826;22;20159;-83
2023/04/21 02:34:55;;;;;;;3.50;2.00;;;17.80;35.70;;;;;;6181249;23;20590;-82
2023/04/21 02:37:21;;;;;;;6.05;2.15;;;17.90;35.70;;;;;;6284841;22;20531;-83
2023/04/21 02:39:47;;;;;;;3.38;1.83;;;17.90;35.70;;;;;;6259361;22;20571;-83
2023/04/21 02:42:13;;;;;;;4.15;2.10;;;17.90;35.80;;;;;;6284807;22;20131;-82
2023/04/21 02:44:38;;;;;;;3.08;2.28;;;17.90;35.80;;;;;;6285988;22;20146;-82
2023/04/21 02:47:04;;;;;;;5.15;2.30;;;17.80;35.90;;;;;;6287121;22;20458;-82
2023/04/21 02:49:30;;;;;;;5.30;2.15;;;17.80;35.90;;;;;;6287836;22;20249;-83
2023/04/21 02:51:57;;;;;;;3.35;1.90;;;17.80;35.90;;;;;;6261480;22;20151;-83
2023/04/21 02:54:23;;;;;;;3.35;1.90;;;17.80;35.90;;;;;;6260725;22;20570;-82
2023/04/21 02:56:49;;;;;;;2.85;2.08;;;17.80;35.80;;;;;;6286925;22;20143;-82
2023/04/21 02:59:15;;;;;;;5.95;2.70;;;17.80;35.90;;;;;;6286721;22;20155;-82
2023/04/21 03:01:41;;;;;;;2.50;2.30;;;17.80;35.90;;;;;;6182515;23;20135;-83
2023/04/21 03:04:07;;;;;;;3.38;2.20;;;17.80;36.00;;;;;;6182515;23;20135;-82
2023/04/21 03:06:33;;;;;;;5.63;2.10;;;17.80;36.00;;;;;;6182560;23;20451;-82
2023/04/21 03:08:59;;;;;;;3.95;2.22;;;17.80;36.00;;;;;;6182577;23;20161;-83
2023/04/21 03:11:25;;;;;;;3.25;1.80;;;17.70;36.00;;;;;;6182541;23;20577;-83
2023/04/21 03:13:50;;;;;;;2.25;1.83;;;17.80;36.00;;;;;;6286261;22;20143;-82
2023/04/21 03:16:16;;;;;;;3.80;2.28;;;17.80;36.00;;;;;;6260463;22;20167;-82
2023/04/21 03:18:42;;;;;;;4.22;1.90;;;17.80;36.00;;;;;;6286235;22;20566;-82
2023/04/21 03:21:08;;;;;;;8.02;2.30;;;17.80;36.00;;;;;;6286270;22;20154;-82
2023/04/21 03:23:34;;;;;;;4.20;2.45;;;17.70;36.00;;;;;;6182453;23;20135;-83
2023/04/21 03:25:59;;;;;;;6.03;2.15;;;17.80;36.10;;;;;;6260691;22;20194;-82
2023/04/21 03:28:25;;;;;;;3.83;2.13;;;17.80;36.00;;;;;;6285960;22;20203;-82
2023/04/21 03:30:51;;;;;;;2.28;1.90;;;17.80;36.10;;;;;;6286665;22;20131;-83
2023/04/21 03:33:17;;;;;;;3.38;2.10;;;17.80;36.00;;;;;;6286264;22;20141;-82
2023/04/21 03:35:43;;;;;;;2.03;1.80;;;17.80;36.10;;;;;;6286146;22;20166;-83
2023/04/21 03:38:08;;;;;;;3.60;2.08;;;17.70;36.10;;;;;;6286565;22;20465;-82
2023/04/21 03:40:34;;;;;;;4.10;2.13;;;17.70;36.10;;;;;;6260340;22;20470;-82
2023/04/21 03:43:00;;;;;;;2.83;2.35;;;17.80;36.20;;;;;;6286503;22;20869;-82
2023/04/21 03:45:26;;;;;;;3.47;2.30;;;17.70;36.20;;;;;;6286880;22;20143;-82
2023/04/21 03:47:54;;;;;;;5.90;2.30;;;17.70;36.20;;;;;;6286120;22;20173;-82
2023/04/21 03:50:19;;;;;;;3.53;2.13;;;17.70;36.20;;;;;;6260461;22;20142;-82
2023/04/21 03:52:45;;;;;;;4.28;2.30;;;17.70;36.20;;;;;;6286302;22;20138;-82
2023/04/21 03:55:11;;;;;;;3.75;2.20;;;17.70;36.20;;;;;;6285559;22;20178;-82
2023/04/21 03:57:40;;;;;;;4.28;2.28;;;17.70;36.20;;;;;;6182146;23;20562;-82
2023/04/21 04:00:08;;;;;;;3.10;2.10;;;17.70;36.20;;;;;;6261322;22;20155;-82
2023/04/21 04:02:35;;;;;;;4.03;2.40;;;17.70;36.20;;;;;;6287409;22;20158;-82
2023/04/21 04:05:04;;;;;;;5.00;2.20;;;17.70;36.20;;;;;;6260492;22;20143;-82
2023/04/21 04:07:31;;;;;;;3.20;2.30;;;17.70;36.20;;;;;;6236345;22;20151;-82
2023/04/21 04:09:56;;;;;;;3.42;2.28;;;17.70;36.20;;;;;;6260384;22;20146;-82
2023/04/21 04:12:22;;;;;;;3.15;2.08;;;17.70;36.30;;;;;;6235855;22;20155;-82
2023/04/21 04:14:48;;;;;;;2.55;1.95;;;17.70;36.30;;;;;;6181762;23;20539;-82
2023/04/21 04:17:14;;;;;;;3.72;2.22;;;17.60;36.30;;;;;;6260187;22;20553;-82
2023/04/21 04:19:39;;;;;;;2.40;2.20;;;17.60;36.30;;;;;;6285689;22;20189;-82
2023/04/21 04:22:05;;;;;;;4.72;2.28;;;17.70;36.30;;;;;;6260071;22;20153;-82
2023/04/21 04:24:32;;;;;;;3.90;2.25;;;17.70;36.30;;;;;;6235715;22;20158;-82
2023/04/21 04:27:00;;;;;;;5.13;2.55;;;17.70;36.30;;;;;;6259845;22;20225;-82
2023/04/21 04:29:26;;;;;;;4.70;2.22;;;17.70;36.30;;;;;;6260765;22;20234;-82
2023/04/21 04:31:52;;;;;;;4.47;2.30;;;17.70;36.30;;;;;;6260506;22;20185;-82
2023/04/21 04:34:18;;;;;;;5.13;2.50;;;17.70;36.20;;;;;;6234936;22;20227;-82
2023/04/21 04:36:44;;;;;;;5.13;2.33;;;17.80;36.30;;;;;;6235216;22;20625;-82
2023/04/21 04:39:11;;;;;;;5.40;2.33;;;17.70;36.30;;;;;;6285870;22;20174;-82
2023/04/21 04:41:37;;;;;;;5.35;2.10;;;17.80;36.30;;;;;;6286552;22;20151;-82
2023/04/21 04:44:04;;;;;;;4.72;2.30;;;17.80;36.30;;;;;;6286011;22;20210;-82
2023/04/21 04:46:31;;;;;;;6.75;2.25;;;17.80;36.90;;;;;;6182022;23;20131;-82
2023/04/21 04:48:57;;;;;;;3.10;2.33;;;17.80;36.30;;;;;;6285396;22;20135;-82
2023/04/21 04:51:23;;;;;;;2.92;2.17;;;17.80;36.20;;;;;;6260318;22;20154;-82
2023/04/21 04:53:48;;;;;;;5.15;2.20;;;17.80;36.20;;;;;;6181910;23;20470;-82
2023/04/21 04:56:15;;;;;;;2.30;1.95;;;17.80;36.20;;;;;;6286114;22;20166;-82
2023/04/21 04:58:40;;;;;;;6.53;2.40;;;17.80;36.60;;;;;;6182272;23;20137;-82
2023/04/21 05:01:11;;;;;;;5.68;2.22;;;17.80;36.20;;;;;;6286113;22;20135;-82
2023/04/21 05:03:37;;;;;;;3.90;2.40;;;17.80;36.30;;;;;;6284338;22;20161;-82
2023/04/21 05:06:03;;;;;;;4.47;2.53;;;17.80;36.30;;;;;;6235001;22;20155;-82
2023/04/21 05:08:29;;;;;;;4.00;2.30;;;17.80;36.30;;;;;;6260498;22;20146;-82
2023/04/21 05:10:55;;;;;;;3.08;2.28;;;17.90;36.30;;;;;;6234549;22;20151;-82
2023/04/21 05:13:20;;;;;;;4.28;2.33;;;17.90;36.20;;;;;;6285772;22;20143;-82
2023/04/21 05:15:46;;;;;;;3.05;2.17;;;18.00;36.20;;;;;;6285304;22;20517;-82
2023/04/21 05:18:12;;;;;;;4.18;2.47;;;17.90;36.20;;;;;;6181968;23;20541;-82
2023/04/21 05:20:40;;;;;;;4.47;2.22;;;18.00;36.20;;;;;;6285554;22;20130;-82
2023/04/21 05:23:06;;;;;;;3.33;2.30;;;18.00;36.10;;;;;;6285745;22;20131;-82
2023/04/21 05:25:32;;;;;;;5.00;2.25;;;18.00;36.00;;;;;;6181332;22;20153;-82
2023/04/21 05:27:58;;;;;;;3.92;2.22;;;18.10;36.00;;;;;;6259879;22;20478;-83
2023/04/21 05:30:24;;;;;;;3.17;2.10;;;18.10;36.00;;;;;;6259827;22;20242;-82
2023/04/21 05:32:50;;;;;;;4.38;2.00;;;18.10;35.80;;;;;;6259765;22;20504;-82
2023/04/21 05:35:16;;;;;;;3.80;2.35;;;18.10;35.80;;;;;;6259997;22;20642;-82
2023/04/21 05:37:41;;;;;;;3.80;2.10;;;18.10;35.80;;;;;;6234689;22;20155;-82
2023/04/21 05:40:08;;;;;;;3.13;2.17;;;18.10;35.80;;;;;;6181717;23;20154;-82
2023/04/21 05:42:34;;;;;;;2.58;2.08;;;18.20;35.70;;;;;;6285883;22;20161;-83
2023/04/21 05:45:00;;;;;;;4.10;2.30;;;18.20;35.80;;;;;;6183234;23;20135;-83
2023/04/21 05:47:25;;;;;;;2.78;2.22;;;18.20;35.80;;;;;;6286842;22;20140;-82
2023/04/21 05:49:52;;;;;;;3.05;2.05;;;18.10;35.80;;;;;;6288009;22;20154;-82
2023/04/21 05:52:19;;;;;;;3.50;2.13;;;18.20;35.80;;;;;;6262125;22;20154;-82
2023/04/21 05:54:45;;;;;;;3.15;2.33;;;18.20;35.70;;;;;;6183622;22;20163;-83
2023/04/21 05:57:11;;;;;;;3.08;2.20;;;18.20;35.70;;;;;;6287223;22;20539;-82
2023/04/21 05:59:37;;;;;;;2.80;2.13;;;18.20;35.70;;;;;;6288625;22;20143;-83
2023/04/21 06:02:06;;;;;;;2.97;2.10;;;18.20;35.70;;;;;;6288795;22;20471;-82
2023/04/21 06:04:33;;;;;;;9.48;2.28;;;18.20;35.70;;;;;;6210388;22;20208;-82
2023/04/21 06:07:05;;;;;;;4.00;2.60;;;18.20;35.90;;;;;;6286771;22;20181;-83
2023/04/21 06:09:31;;;;;;;3.47;2.30;;;18.20;35.80;;;;;;6287099;22;20155;-82
2023/04/21 06:11:57;;;;;;;4.80;2.20;;;18.20;35.90;;;;;;6288559;22;20135;-82
2023/04/21 06:14:23;;;;;;;5.32;2.33;;;18.20;36.00;;;;;;6290201;22;20214;-83
2023/04/21 06:16:49;;;;;;;5.97;2.20;;;18.20;36.10;;;;;;6289029;22;20142;-83
2023/04/21 06:19:15;;;;;;;6.90;2.13;;;18.20;36.30;;;;;;6237119;22;20229;-83
2023/04/21 06:21:41;;;;;;;3.50;2.40;;;18.30;36.20;;;;;;6263287;22;20142;-83
2023/04/21 06:24:07;;;;;;;6.80;2.38;;;18.20;36.10;;;;;;6236857;22;20151;-83
2023/04/21 06:26:35;;;;;;;5.50;2.38;;;18.30;36.10;;;;;;6261270;22;20194;-82
2023/04/21 06:29:01;;;;;;;4.35;2.17;;;18.30;36.00;;;;;;6235669;23;20158;-83
2023/04/21 06:31:29;;;;;;;2.92;1.98;;;18.20;35.90;;;;;;6263070;22;20165;-82
2023/04/21 06:33:55;;;;;;;3.03;2.10;;;18.20;35.80;;;;;;6211283;22;20155;-83
2023/04/21 06:36:22;;;;;;;3.08;2.15;;;18.30;36.00;;;;;;6263134;22;20190;-83
2023/04/21 06:38:48;;;;;;;3.83;2.10;;;18.20;36.00;;;;;;6236729;23;20183;-83
2023/04/21 06:41:18;;;;;;;4.30;2.30;;;18.30;36.20;;;;;;6262873;22;20135;-83
2023/04/21 06:43:44;;;;;;;2.60;2.25;;;18.20;36.80;;;;;;6237466;23;20154;-83
2023/04/21 06:46:14;;;;;;;2.38;1.95;;;18.20;36.20;;;;;;6186526;23;20202;-83
2023/04/21 06:48:40;;;;;;;4.85;1.95;;;18.30;36.10;;;;;;6213123;22;20182;-83
2023/04/21 06:51:11;;;;;;;3.53;1.90;;;18.40;36.10;;;;;;6240027;22;20147;-83
2023/04/21 06:53:37;;;;;;;4.07;2.00;;;18.40;36.10;;;;;;6238633;23;20155;-83
2023/04/21 06:56:03;;;;;;;3.92;1.90;;;18.40;36.30;;;;;;6292532;22;20166;-83
2023/04/21 06:58:32;;;;;;;3.17;2.08;;;18.40;36.40;;;;;;6189182;23;20191;-82
2023/04/21 07:01:01;;;;;;;3.92;1.73;;;18.40;36.50;;;;;;6242042;23;20147;-83
2023/04/21 07:03:30;;;;;;;1.95;1.75;;;18.40;36.60;;;;;;6239761;23;20243;-83
2023/04/21 07:05:55;;;;;;;3.70;2.10;;;18.50;36.60;;;;;;6215697;22;20154;-83
2023/04/21 07:08:21;;;;;;;2.70;1.85;;;18.40;36.40;;;;;;6266808;22;20161;-83
2023/04/21 07:10:47;;;;;;;3.58;1.90;;;18.40;36.70;;;;;;6293316;22;20135;-82
2023/04/21 07:13:12;;;;;;;1.95;1.75;;;18.50;36.60;;;;;;6293356;22;20151;-82
2023/04/21 07:15:38;;;;;;;4.25;1.88;;;18.60;36.60;;;;;;6290586;22;20213;-82
2023/04/21 07:18:09;;;;;;;3.20;2.08;;;18.50;36.70;;;;;;6265251;22;20214;-82
2023/04/21 07:20:36;;;;;;;3.63;1.90;;;18.50;36.80;;;;;;6213432;22;20237;-82
2023/04/21 07:23:01;;;;;;;3.35;1.55;;;18.40;36.80;;;;;;6266377;22;20135;-82
2023/04/21 07:25:30;;;;;;;2.35;1.52;;;18.40;37.10;;;;;;6292566;22;20146;-83
2023/04/21 07:28:01;;;;;;;3.53;1.70;;;18.40;37.10;;;;;;6238809;23;20197;-83
2023/04/21 07:30:28;;;;;;;2.67;1.80;;;18.40;37.10;;;;;;6190096;22;20154;-82
2023/04/21 07:32:56;;;;;;;2.80;1.90;;;18.40;37.30;;;;;;6290511;22;20131;-83
2023/04/21 07:35:22;;;;;;;3.20;1.33;;;18.30;37.40;;;;;;6238215;23;20268;-83
2023/04/21 07:37:47;;;;;;;2.55;1.60;;;18.20;37.50;;;;;;6289723;22;20146;-82
2023/04/21 07:40:15;;;;;;;3.63;1.58;;;18.30;37.60;;;;;;6239839;22;20652;-82
2023/04/21 07:42:42;;;;;;;2.30;1.70;;;18.40;37.50;;;;;;6238579;23;20150;-82
2023/04/21 07:45:09;;;;;;;2.67;1.60;;;18.30;37.60;;;;;;6239710;23;20586;-83
2023/04/21 07:47:34;;;;;;;2.53;1.63;;;18.30;37.70;;;;;;6189843;22;20135;-83
2023/04/21 07:50:00;;;;;;;4.20;1.50;;;18.40;37.80;;;;;;6188882;23;20146;-83
2023/04/21 07:52:26;;;;;;;2.55;1.80;;;18.40;37.70;;;;;;6267664;22;20265;-83
2023/04/21 07:54:51;;;;;;;2.30;1.70;;;18.30;37.60;;;;;;6268099;22;20170;-84
2023/04/21 07:57:18;;;;;;;2.08;1.60;;;18.20;38.50;;;;;;6291743;22;20135;-83
2023/04/21 07:59:45;;;;;;;2.25;1.58;;;18.30;37.90;;;;;;6291083;22;20132;-83
2023/04/21 08:02:15;;;;;;;2.63;1.20;;;18.30;37.90;;;;;;6292694;22;20719;-82
2023/04/21 08:04:41;;;;;;;3.22;1.55;;;18.30;37.90;;;;;;6239549;23;20155;-82
2023/04/21 08:07:08;;;;;;;2.03;1.48;;;18.30;38.30;;;;;;6267369;22;20150;-83
2023/04/21 08:09:34;;;;;;;1.77;1.35;;;18.40;38.00;;;;;;6189698;23;20132;-83
2023/04/21 08:12:01;;;;;;;1.88;1.23;;;18.40;38.30;;;;;;6268245;22;20147;-82
2023/04/21 08:14:27;;;;;;;2.20;1.40;;;18.50;38.20;;;;;;6268143;22;20143;-83
2023/04/21 08:16:54;;;;;;;2.72;1.50;;;18.50;38.30;;;;;;6267297;22;20131;-82
2023/04/21 08:19:24;;;;;;;2.22;1.67;;;18.60;38.70;;;;;;6267565;22;20206;-83
2023/04/21 08:21:50;;;;;;;2.75;1.40;;;18.60;38.10;;;;;;6240243;23;20162;-83
2023/04/21 08:24:19;;;;;;;1.42;1.30;;;18.60;37.80;;;;;;6291519;22;20143;-82
2023/04/21 08:26:45;;;;;;;1.67;1.30;;;18.60;37.90;;;;;;6211980;22;20194;-82
2023/04/21 08:29:14;;;;;;;2.05;1.42;;;18.60;38.60;;;;;;6292375;22;20166;-82
2023/04/21 08:31:39;;;;;;;1.98;1.33;;;18.60;38.10;;;;;;6189405;22;20233;-83
2023/04/21 08:34:06;;;;;;;2.03;1.42;;;18.70;38.00;;;;;;6241063;22;20153;-83
2023/04/21 08:36:31;;;;;;;1.40;1.30;;;18.70;38.30;;;;;;6241078;22;20261;-83
2023/04/21 08:38:58;;;;;;;2.83;1.42;;;18.70;38.20;;;;;;6293797;22;20140;-83
2023/04/21 08:41:26;;;;;;;1.40;1.30;;;18.70;38.20;;;;;;6241272;22;20166;-83
2023/04/21 08:43:56;;;;;;;3.08;1.50;;;18.70;38.00;;;;;;6240803;23;20490;-83
2023/04/21 08:46:25;;;;;;;1.48;1.30;;;18.70;38.20;;;;;;6216348;22;20568;-83
2023/04/21 08:48:52;;;;;;;1.70;1.38;;;18.70;38.00;;;;;;6238652;22;20167;-84
2023/04/21 08:51:21;;;;;;;1.38;1.13;;;18.70;38.30;;;;;;6236895;22;20155;-83
2023/04/21 08:53:47;;;;;;;1.38;1.20;;;18.70;38.30;;;;;;6260409;22;20159;-83
2023/04/21 08:56:13;;;;;;;1.83;1.10;;;18.70;38.30;;;;;;6284176;22;20168;-81
2023/04/21 08:58:40;;;;;;;1.75;1.38;;;18.60;38.20;;;;;;6281854;22;20583;-82
2023/04/21 09:01:10;;;;;;;1.50;1.30;;;18.70;38.50;;;;;;6284679;22;20144;-83
2023/04/21 09:03:37;;;;;;;1.15;1.02;;;18.70;38.30;;;;;;6235057;22;20155;-83
2023/04/21 09:06:08;;;;;;;1.27;1.17;;;18.70;38.60;;;;;;6258959;22;20155;-83
2023/04/21 09:08:37;;;;;;;1.30;1.20;;;18.80;38.30;;;;;;6233310;22;20156;-83
2023/04/21 09:11:03;;;;;;;1.05;1.00;;;18.80;38.60;;;;;;6260847;22;20554;-83
2023/04/21 09:13:30;;;;;;;1.50;1.30;;;18.80;38.90;;;;;;6285887;22;20706;-83
2023/04/21 09:15:56;;;;;;;2.80;1.40;;;18.80;38.50;;;;;;6259918;22;20183;-84
2023/04/21 09:18:34;;;;;;;2.03;1.20;;;18.80;38.40;;;;;;6285601;22;20162;-83
2023/04/21 09:21:09;;;;;;;1.30;1.20;;;18.80;38.60;;;;;;6217914;22;20150;-83
2023/04/21 09:23:43;;;;;;;1.33;1.23;;;18.80;38.70;;;;;;6290194;22;20151;-83
2023/04/21 09:26:09;;;;;;;0.98;0.90;;;18.80;38.70;;;;;;6265124;22;20194;-83
2023/04/21 09:28:35;;;;;;;1.33;1.23;;;18.80;38.70;;;;;;6238845;22;20492;-83
2023/04/21 09:31:00;;;;;;;2.40;1.20;;;18.80;38.50;;;;;;6263950;22;20594;-83
2023/04/21 09:33:26;;;;;;;0.80;0.80;;;18.80;38.70;;;;;;6183919;23;20139;-82
2023/04/21 09:35:52;;;;;;;1.15;1.00;;;18.90;38.60;;;;;;6182160;23;20520;-83
2023/04/21 09:38:21;;;;;;;1.10;0.90;;;18.80;38.70;;;;;;6286933;22;20200;-83
2023/04/21 09:41:02;;;;;;;1.20;1.10;;;18.80;38.80;;;;;;6262171;22;20177;-82
2023/04/21 09:43:28;;;;;;;1.92;1.10;;;18.90;38.80;;;;;;6290194;22;20188;-83
2023/04/21 09:45:53;;;;;;;2.38;1.20;;;18.80;38.80;;;;;;6288131;22;20143;-83
2023/04/21 09:48:19;;;;;;;1.55;0.95;;;18.80;39.00;;;;;;6235914;22;20466;-82
2023/04/21 09:50:46;;;;;;;1.23;1.10;;;18.80;39.10;;;;;;6286943;22;20135;-83
2023/04/21 09:53:15;;;;;;;2.42;1.10;;;18.70;39.00;;;;;;6260245;22;20167;-83
2023/04/21 09:55:41;;;;;;;1.73;0.80;;;18.80;39.10;;;;;;6285734;22;20188;-83
2023/04/21 09:58:08;;;;;;;1.13;1.00;;;18.80;39.40;;;;;;6262888;22;20474;-83
2023/04/21 10:00:38;;;;;;;1.30;1.05;;;18.70;39.10;;;;;;6182941;23;20131;-82
2023/04/21 10:03:04;;;;;;;1.17;1.02;;;18.80;39.40;;;;;;6284465;22;20558;-83
2023/04/21 10:05:30;;;;;;;1.20;0.98;;;18.80;39.20;;;;;;6286740;22;20142;-83
2023/04/21 10:07:55;;;;;;;1.38;1.23;;;18.80;39.40;;;;;;6287683;22;20474;-82
2023/04/21 10:10:25;;;;;;;2.45;1.10;;;18.70;39.40;;;;;;6262008;22;20453;-82
2023/04/21 10:12:51;;;;;;;1.30;1.00;;;18.80;40.00;;;;;;6284833;22;20135;-84
2023/04/21 10:15:34;;;;;;;1.35;1.00;;;18.80;39.40;;;;;;6182276;23;20173;-83
2023/04/21 10:18:15;;;;;;;0.95;0.80;;;18.80;39.60;;;;;;6260744;22;20159;-83
2023/04/21 10:21:10;;;;;;;1.00;1.00;;;18.90;39.50;;;;;;6260298;22;20193;-83
2023/04/21 10:23:41;;;;;;;1.10;1.00;;;18.90;39.50;;;;;;6286361;22;20135;-82
2023/04/21 10:26:14;;;;;;;0.70;0.70;;;18.70;39.40;;;;;;6286119;22;20637;-82
2023/04/21 10:28:46;;;;;;;1.10;1.00;;;18.80;39.60;;;;;;6235249;22;20151;-83
2023/04/21 10:31:46;;;;;;;1.75;0.95;;;18.70;39.80;;;;;;6286253;22;20141;-83
2023/04/21 10:34:12;;;;;;;1.55;1.00;;;18.70;39.80;;;;;;6268072;22;20135;-82
2023/04/21 10:37:08;;;;;;;1.42;0.80;;;18.60;39.90;;;;;;6183247;23;20491;-82
2023/04/21 10:39:36;;;;;;;1.25;1.02;;;18.70;40.00;;;;;;6260718;22;20167;-82
2023/04/21 10:42:23;;;;;;;1.35;0.90;;;18.70;39.90;;;;;;6261516;22;20155;-82
2023/04/21 10:45:01;;;;;;;0.85;0.80;;;18.80;39.90;;;;;;6270221;22;20530;-82
2023/04/21 10:47:40;;;;;;;1.40;1.08;;;18.80;39.80;;;;;;6214588;22;20616;-83
2023/04/21 10:50:19;;;;;;;1.05;0.95;;;18.80;39.90;;;;;;6237791;22;20157;-82
2023/04/21 10:52:50;;;;;;;1.45;1.10;;;18.80;40.10;;;;;;6233507;23;20158;-82
2023/04/21 10:55:16;;;;;;;1.00;0.90;;;18.70;40.00;;;;;;6264129;22;20198;-83
2023/04/21 10:57:47;;;;;;;1.00;0.90;;;18.70;40.00;;;;;;6264433;22;20150;-82
2023/04/21 11:00:15;;;;;;;1.35;1.05;;;18.70;40.20;;;;;;6189133;22;20155;-83
2023/04/21 11:02:42;;;;;;;2.38;1.02;;;18.80;40.20;;;;;;6186560;22;20131;-83
2023/04/21 11:05:10;;;;;;;1.67;0.70;;;18.70;40.10;;;;;;6214062;22;20159;-83
2023/04/21 11:07:35;;;;;;;0.93;0.90;;;18.80;40.20;;;;;;6189903;22;20155;-82
2023/04/21 11:10:07;;;;;;;1.05;0.90;;;18.80;40.10;;;;;;6188230;23;20148;-83
2023/04/21 11:12:37;;;;;;;2.42;1.00;;;18.80;40.10;;;;;;6192101;22;20478;-83
2023/04/21 11:15:06;;;;;;;1.20;1.10;;;18.80;40.20;;;;;;6192933;22;20228;-82
2023/04/21 11:17:32;;;;;;;1.08;0.98;;;18.80;40.20;;;;;;6294749;22;20469;-83
2023/04/21 11:19:58;;;;;;;1.73;0.90;;;18.80;40.20;;;;;;6244663;22;20139;-81
2023/04/21 11:22:25;;;;;;;1.45;0.98;;;18.80;40.30;;;;;;6297700;22;20127;-83
2023/04/21 11:24:53;;;;;;;1.67;0.95;;;18.90;40.30;;;;;;6271222;22;20141;-84
2023/04/21 11:27:26;;;;;;;0.70;0.70;;;18.80;40.20;;;;;;6191030;22;20182;-83
2023/04/21 11:29:56;;;;;;;1.60;0.98;;;18.90;40.40;;;;;;6218925;22;20174;-82
2023/04/21 11:32:22;;;;;;;1.55;1.00;;;19.00;40.40;;;;;;6215459;22;20158;-83
2023/04/21 11:34:48;;;;;;;1.08;0.98;;;18.90;40.30;;;;;;6292480;22;20135;-83
2023/04/21 11:37:19;;;;;;;0.82;0.82;;;18.90;40.30;;;;;;6268992;22;20207;-83
2023/04/21 11:39:45;;;;;;;1.20;0.95;;;18.90;40.30;;;;;;6294093;22;20143;-82
2023/04/21 11:42:11;;;;;;;1.20;0.90;;;18.90;40.30;;;;;;6266767;22;20222;-84
2023/04/21 11:44:42;;;;;;;1.00;0.90;;;18.90;40.30;;;;;;6287710;22;20155;-83
2023/04/21 11:47:21;;;;;;;0.82;0.82;;;18.90;40.40;;;;;;6213424;22;20154;-83
2023/04/21 11:49:49;;;;;;;1.20;0.93;;;18.90;40.60;;;;;;6244155;22;20173;-83
2023/04/21 11:52:23;;;;;;;0.80;0.80;;;18.80;40.50;;;;;;6267477;22;20189;-82
2023/04/21 11:54:54;;;;;;;1.00;0.85;;;18.90;40.40;;;;;;6264992;22;20463;-83
2023/04/21 11:57:21;;;;;;;0.80;0.80;;;18.90;40.40;;;;;;6185220;22;20153;-83
2023/04/21 11:59:47;;;;;;;1.48;1.10;;;18.90;40.60;;;;;;6264727;22;20150;-83
2023/04/21 12:02:21;;;;;;;1.10;0.88;;;18.90;40.70;;;;;;6270390;22;20222;-83
2023/04/21 12:04:58;;;;;;;1.75;1.10;;;19.00;40.40;;;;;;6271063;22;20127;-83
2023/04/21 12:07:24;;;;;;;1.33;1.10;;;19.00;40.60;;;;;;6292157;22;20145;-83
2023/04/21 12:09:51;;;;;;;2.15;0.90;;;18.90;40.50;;;;;;6291274;22;20456;-83
2023/04/21 12:12:17;;;;;;;1.13;0.80;;;18.90;40.60;;;;;;6294415;22;20135;-83
2023/04/21 12:14:44;;;;;;;0.93;0.90;;;18.90;40.60;;;;;;6263386;22;20227;-83
2023/04/21 12:17:14;;;;;;;0.93;0.85;;;19.00;40.60;;;;;;6291649;22;20581;-83
2023/04/21 12:19:41;;;;;;;1.15;0.90;;;19.00;40.80;;;;;;6186957;22;20147;-83
2023/04/21 12:22:13;;;;;;;1.38;0.95;;;19.10;40.90;;;;;;6263323;22;20558;-83
2023/04/21 12:24:39;;;;;;;1.08;0.98;;;19.10;40.50;;;;;;6238868;22;20150;-84
2023/04/21 12:27:09;;;;;;;1.25;1.02;;;19.10;40.50;;;;;;6236812;22;20249;-82
2023/04/21 12:29:37;;;;;;;1.02;0.93;;;19.10;40.50;;;;;;6190218;22;20222;-83
2023/04/21 12:32:04;;;;;;;0.80;0.80;;;19.10;40.50;;;;;;6291813;22;20161;-83
2023/04/21 12:34:31;;;;;;;1.10;0.82;;;19.00;40.50;;;;;;6289212;22;20131;-84
2023/04/21 12:36:57;;;;;;;1.45;0.90;;;19.10;40.60;;;;;;6264363;22;20225;-82
2023/04/21 12:39:26;;;;;;;0.82;0.82;;;19.00;40.60;;;;;;6286386;22;20203;-82
2023/04/21 12:41:56;;;;;;;1.17;0.90;;;19.00;40.60;;;;;;6237530;22;20163;-82
2023/04/21 12:44:23;;;;;;;0.90;0.90;;;19.10;40.60;;;;;;6190274;22;20155;-84
2023/04/21 12:46:49;;;;;;;1.08;0.75;;;19.20;40.50;;;;;;6267377;22;20150;-83
2023/04/21 12:49:16;;;;;;;0.95;0.85;;;19.20;40.30;;;;;;6265846;22;20143;-82